Bismarck Municipal Airport
KBIS : now visible

Airfield :











YOU CAN JOIN US ON...

 
LOGIN :

Register | Disclaimer

   EN    FR    IT 

 









Legend :    VFR   Marginal VFR   IFR   Intensive IFR   Very Intensive IFR
Visi :
Ceiling :
>= 8 km
>= 3000ft
5 to 8 km
1000 to 3000 ft
1500m to 5 km
500 to 1000 ft
800 to 1500m
200 to 500 ft
< 800m
< 200 ft
Symbols :   Thunderstorms  Fog  Heavy snow  Heavy precipitations  Wind > 20 kt






- Airport Elevation : 1661 ft
- IATA code : BIS


KBIS - Bismarck Municipal

CURRENT METAR :
  • 011801Z 31016KT 10SM BKN007 BKN011 OVC016 02/01 A2980 RMK AO2 T00220011

EXPIRED METARs :
  • 011750Z 31019G24KT 10SM BKN009 BKN016 OVC022 03/02 A2979 RMK AO2 RAB02E15 CIG 007V013 P0000
  • 011722Z 31007KT 10SM BKN019 OVC075 06/03 A2977 RMK AO2 RAB02E15 P0000 T00560028
  • 011652Z 25005KT 10SM SCT016 BKN080 OVC110 06/02 A2977 RMK AO2 RAB22E32 SLP093 P0000 T00560017
  • 011552Z 00000KT 10SM BKN070 OVC090 05/02 A2977 RMK AO2 RAE52 SLP091 P0001 T00500017

TAF KBIS
Valid from the 01 at 18:00 until the 02 at 18:00 UTC


011748Z 0118/0218 26007KT P6SM VCSH SCT015 BKN080
TEMPO 0118/0120 BKN015
FM012000 30016G24KT P6SM FEW018 SCT045
FM020700 33011KT P6SM SCT090 OVC150
FM021000 33012G20KT P6SM VCSH OVC060



MET'MAP, your aeronautical weather chart ! - Copyright ORBIFLY December 2007 - Disclaimer

ORBIFLY MET'MAP TEAM :

Programming & Development : Alexandra Zaïnal
Concept & original design : Baudouin d'Aumeries
Assistance for programming : Marc-Olivier Méhu
Technical & hardware support : Manuel Goepfert

Contact : metmap@orbifly.com




SOURCES & CREDITS :

   NOAA       Earth
Advisory